sensor_id;sensor_type;location;lat;lon;timestamp;pressure;altitude;pressure_sealevel;temperature;humidity
26083;BME280;13848;49.018;12.078;2023-04-25T00:00:06;96988.53;;;9.40;63.79
26083;BME280;13848;49.018;12.078;2023-04-25T00:02:33;96986.53;;;9.47;64.15
26083;BME280;13848;49.018;12.078;2023-04-25T00:08:03;96983.16;;;9.40;64.09
26083;BME280;13848;49.018;12.078;2023-04-25T00:10:29;96987.56;;;9.22;64.54
26083;BME280;13848;49.018;12.078;2023-04-25T00:12:55;96976.78;;;9.22;65.04
26083;BME280;13848;49.018;12.078;2023-04-25T00:15:21;96974.19;;;9.27;64.71
26083;BME280;13848;49.018;12.078;2023-04-25T00:17:48;96975.22;;;9.15;65.06
26083;BME280;13848;49.018;12.078;2023-04-25T00:20:14;96973.00;;;9.00;65.32
26083;BME280;13848;49.018;12.078;2023-04-25T00:22:40;96972.78;;;9.13;65.05
26083;BME280;13848;49.018;12.078;2023-04-25T00:25:07;96968.13;;;9.20;64.71
26083;BME280;13848;49.018;12.078;2023-04-25T00:27:38;96969.97;;;9.08;64.96
26083;BME280;13848;49.018;12.078;2023-04-25T00:30:07;96969.69;;;8.98;65.05
26083;BME280;13848;49.018;12.078;2023-04-25T00:32:33;96982.97;;;9.11;65.13
26083;BME280;13848;49.018;12.078;2023-04-25T00:35:01;96977.47;;;9.18;64.78
26083;BME280;13848;49.018;12.078;2023-04-25T00:37:27;96981.25;;;9.28;64.71
26083;BME280;13848;49.018;12.078;2023-04-25T00:39:53;96976.78;;;9.22;64.77
26083;BME280;13848;49.018;12.078;2023-04-25T00:42:19;96971.50;;;9.16;64.81
26083;BME280;13848;49.018;12.078;2023-04-25T00:44:45;96974.41;;;9.14;64.98
26083;BME280;13848;49.018;12.078;2023-04-25T00:47:12;96977.34;;;9.13;64.94
26083;BME280;13848;49.018;12.078;2023-04-25T00:49:38;96967.66;;;9.23;64.79
26083;BME280;13848;49.018;12.078;2023-04-25T00:52:06;96970.69;;;9.27;64.72
26083;BME280;13848;49.018;12.078;2023-04-25T00:54:32;96970.94;;;9.25;64.61
26083;BME280;13848;49.018;12.078;2023-04-25T00:56:58;96967.66;;;9.23;64.72
26083;BME280;13848;49.018;12.078;2023-04-25T00:59:25;96964.94;;;9.12;65.02
26083;BME280;13848;49.018;12.078;2023-04-25T01:01:51;96962.16;;;9.18;64.99
26083;BME280;13848;49.018;12.078;2023-04-25T01:04:17;96957.56;;;9.07;64.84
26083;BME280;13848;49.018;12.078;2023-04-25T01:06:43;96959.69;;;9.05;65.18
26083;BME280;13848;49.018;12.078;2023-04-25T01:09:11;96962.47;;;9.10;65.44
26083;BME280;13848;49.018;12.078;2023-04-25T01:11:37;96969.03;;;9.14;65.78
26083;BME280;13848;49.018;12.078;2023-04-25T01:14:03;96963.66;;;9.14;65.79
26083;BME280;13848;49.018;12.078;2023-04-25T01:16:30;96966.03;;;9.22;65.37
26083;BME280;13848;49.018;12.078;2023-04-25T01:18:56;96965.91;;;9.17;65.69
26083;BME280;13848;49.018;12.078;2023-04-25T01:21:23;96966.97;;;9.16;66.06
26083;BME280;13848;49.018;12.078;2023-04-25T01:23:50;96964.84;;;9.18;65.91
26083;BME280;13848;49.018;12.078;2023-04-25T01:26:16;96967.97;;;9.15;65.79
26083;BME280;13848;49.018;12.078;2023-04-25T01:28:42;96973.03;;;9.12;65.96
26083;BME280;13848;49.018;12.078;2023-04-25T01:31:08;96969.97;;;9.08;65.88
26083;BME280;13848;49.018;12.078;2023-04-25T01:33:34;96972.66;;;9.08;65.85
26083;BME280;13848;49.018;12.078;2023-04-25T01:36:00;96970.44;;;9.05;65.73
26083;BME280;13848;49.018;12.078;2023-04-25T01:38:28;96970.44;;;9.05;65.62
26083;BME280;13848;49.018;12.078;2023-04-25T01:40:54;96973.22;;;9.10;65.02
26083;BME280;13848;49.018;12.078;2023-04-25T01:43:21;96973.22;;;9.10;65.53
26083;BME280;13848;49.018;12.078;2023-04-25T01:45:48;96971.78;;;8.96;65.67
26083;BME280;13848;49.018;12.078;2023-04-25T01:48:14;96975.59;;;8.76;65.70
26083;BME280;13848;49.018;12.078;2023-04-25T01:50:40;96970.16;;;8.65;66.24
26083;BME280;13848;49.018;12.078;2023-04-25T01:53:09;96976.03;;;8.73;65.69
26083;BME280;13848;49.018;12.078;2023-04-25T01:55:36;96975.84;;;8.87;65.76
26083;BME280;13848;49.018;12.078;2023-04-25T01:58:03;96976.72;;;8.99;65.52
26083;BME280;13848;49.018;12.078;2023-04-25T02:00:29;96975.44;;;9.01;65.51
26083;BME280;13848;49.018;12.078;2023-04-25T02:02:57;96971.00;;;9.07;65.09
26083;BME280;13848;49.018;12.078;2023-04-25T02:05:23;96963.88;;;9.01;65.38
26083;BME280;13848;49.018;12.078;2023-04-25T02:07:49;96959.53;;;9.00;65.73
26083;BME280;13848;49.018;12.078;2023-04-25T02:10:15;96959.41;;;8.95;65.81
26083;BME280;13848;49.018;12.078;2023-04-25T02:12:42;96962.56;;;9.03;65.80
26083;BME280;13848;49.018;12.078;2023-04-25T02:15:09;96963.75;;;9.07;65.59
26083;BME280;13848;49.018;12.078;2023-04-25T02:17:35;96958.25;;;9.02;65.48
26083;BME280;13848;49.018;12.078;2023-04-25T02:20:01;96952.44;;;9.05;65.46
26083;BME280;13848;49.018;12.078;2023-04-25T02:22:27;96962.25;;;9.12;65.43
26083;BME280;13848;49.018;12.078;2023-04-25T02:24:53;96957.94;;;9.11;65.70
26083;BME280;13848;49.018;12.078;2023-04-25T02:27:19;96949.97;;;9.16;65.70
26083;BME280;13848;49.018;12.078;2023-04-25T02:29:47;96965.78;;;9.12;65.53
26083;BME280;13848;49.018;12.078;2023-04-25T02:32:12;96953.72;;;9.15;65.53
26083;BME280;13848;49.018;12.078;2023-04-25T02:34:38;96951.38;;;9.06;65.85
26083;BME280;13848;49.018;12.078;2023-04-25T02:37:04;96950.09;;;9.09;65.88
26083;BME280;13848;49.018;12.078;2023-04-25T02:39:30;96951.81;;;9.03;66.18
26083;BME280;13848;49.018;12.078;2023-04-25T02:41:56;96942.13;;;9.02;66.37
26083;BME280;13848;49.018;12.078;2023-04-25T02:44:22;96940.03;;;9.04;66.03
26083;BME280;13848;49.018;12.078;2023-04-25T02:46:49;96945.19;;;9.06;65.98
26083;BME280;13848;49.018;12.078;2023-04-25T02:49:15;96946.25;;;9.17;66.04
26083;BME280;13848;49.018;12.078;2023-04-25T02:51:41;96940.88;;;9.17;65.58
26083;BME280;13848;49.018;12.078;2023-04-25T02:54:07;96934.59;;;8.93;65.54
26083;BME280;13848;49.018;12.078;2023-04-25T02:56:33;96938.34;;;8.92;65.56
26083;BME280;13848;49.018;12.078;2023-04-25T02:58:59;96935.41;;;8.82;65.88
26083;BME280;13848;49.018;12.078;2023-04-25T03:01:25;96934.81;;;8.79;65.80
26083;BME280;13848;49.018;12.078;2023-04-25T03:03:52;96929.44;;;8.79;65.72
26083;BME280;13848;49.018;12.078;2023-04-25T03:06:18;96926.16;;;8.77;65.68
26083;BME280;13848;49.018;12.078;2023-04-25T03:08:44;96920.00;;;8.89;65.18
26083;BME280;13848;49.018;12.078;2023-04-25T03:11:10;96917.88;;;8.91;65.29
26083;BME280;13848;49.018;12.078;2023-04-25T03:13:36;96918.94;;;8.90;65.42
26083;BME280;13848;49.018;12.078;2023-04-25T03:16:02;96912.84;;;8.83;65.34
26083;BME280;13848;49.018;12.078;2023-04-25T03:18:28;96913.69;;;8.83;65.24
26083;BME280;13848;49.018;12.078;2023-04-25T03:20:55;96913.78;;;8.76;65.36
26083;BME280;13848;49.018;12.078;2023-04-25T03:23:21;96913.22;;;8.56;65.78
26083;BME280;13848;49.018;12.078;2023-04-25T03:25:47;96907.94;;;8.49;65.84
26083;BME280;13848;49.018;12.078;2023-04-25T03:28:13;96911.06;;;8.28;66.38
26083;BME280;13848;49.018;12.078;2023-04-25T03:30:39;96912.13;;;8.27;66.62
26083;BME280;13848;49.018;12.078;2023-04-25T03:33:05;96914.44;;;8.05;67.63
26083;BME280;13848;49.018;12.078;2023-04-25T03:35:31;96915.19;;;8.31;66.81
26083;BME280;13848;49.018;12.078;2023-04-25T03:37:58;96910.25;;;8.27;66.68
26083;BME280;13848;49.018;12.078;2023-04-25T03:40:24;96909.75;;;8.37;66.54
26083;BME280;13848;49.018;12.078;2023-04-25T03:42:50;96912.94;;;8.46;66.15
26083;BME280;13848;49.018;12.078;2023-04-25T03:45:16;96913.69;;;8.53;65.99
26083;BME280;13848;49.018;12.078;2023-04-25T03:47:42;96921.69;;;8.41;66.42
26083;BME280;13848;49.018;12.078;2023-04-25T03:50:08;96917.34;;;8.22;67.27
26083;BME280;13848;49.018;12.078;2023-04-25T03:52:34;96919.97;;;8.47;66.57
26083;BME280;13848;49.018;12.078;2023-04-25T03:55:02;96923.97;;;8.56;66.39
26083;BME280;13848;49.018;12.078;2023-04-25T03:57:28;96922.34;;;8.55;66.06
26083;BME280;13848;49.018;12.078;2023-04-25T03:59:54;96923.97;;;8.56;66.05
26083;BME280;13848;49.018;12.078;2023-04-25T04:02:20;96920.97;;;8.64;66.05
26083;BME280;13848;49.018;12.078;2023-04-25T04:04:46;96918.88;;;8.66;66.04
26083;BME280;13848;49.018;12.078;2023-04-25T04:07:12;96914.69;;;8.70;66.19
26083;BME280;13848;49.018;12.078;2023-04-25T04:09:38;96914.69;;;8.70;66.24
26083;BME280;13848;49.018;12.078;2023-04-25T04:12:06;96914.47;;;8.72;66.37
26083;BME280;13848;49.018;12.078;2023-04-25T04:14:32;96903.13;;;8.70;66.08
26083;BME280;13848;49.018;12.078;2023-04-25T04:16:58;96908.50;;;8.70;66.36
26083;BME280;13848;49.018;12.078;2023-04-25T04:19:24;96912.34;;;8.74;65.96
26083;BME280;13848;49.018;12.078;2023-04-25T04:21:49;96910.47;;;8.74;66.29
26083;BME280;13848;49.018;12.078;2023-04-25T04:24:15;96910.63;;;8.79;66.28
26083;BME280;13848;49.018;12.078;2023-04-25T04:26:41;96910.47;;;8.74;66.30
26083;BME280;13848;49.018;12.078;2023-04-25T04:29:09;96908.41;;;8.76;66.72
26083;BME280;13848;49.018;12.078;2023-04-25T04:31:35;96912.47;;;8.79;66.48
26083;BME280;13848;49.018;12.078;2023-04-25T04:34:00;96907.59;;;8.76;66.43
26083;BME280;13848;49.018;12.078;2023-04-25T04:36:26;96904.97;;;8.69;66.35
26083;BME280;13848;49.018;12.078;2023-04-25T04:38:53;96909.47;;;8.57;66.75
26083;BME280;13848;49.018;12.078;2023-04-25T04:41:19;96904.00;;;8.64;66.69
26083;BME280;13848;49.018;12.078;2023-04-25T04:43:45;96908.94;;;8.37;67.15
26083;BME280;13848;49.018;12.078;2023-04-25T04:46:12;96914.72;;;8.34;67.31
26083;BME280;13848;49.018;12.078;2023-04-25T04:48:38;96908.34;;;8.16;68.78
26083;BME280;13848;49.018;12.078;2023-04-25T04:51:04;96906.69;;;8.15;68.16
26083;BME280;13848;49.018;12.078;2023-04-25T04:53:30;96906.72;;;7.97;68.51
26083;BME280;13848;49.018;12.078;2023-04-25T04:55:56;96905.38;;;7.88;69.04
26083;BME280;13848;49.018;12.078;2023-04-25T04:58:22;96903.22;;;7.78;69.49
26083;BME280;13848;49.018;12.078;2023-04-25T05:00:48;96911.03;;;7.98;69.33
26083;BME280;13848;49.018;12.078;2023-04-25T05:03:16;96917.34;;;8.22;68.49
26083;BME280;13848;49.018;12.078;2023-04-25T05:05:41;96913.69;;;8.16;68.76
26083;BME280;13848;49.018;12.078;2023-04-25T05:08:07;96915.19;;;8.31;68.22
26083;BME280;13848;49.018;12.078;2023-04-25T05:10:33;96915.66;;;8.09;68.32
26083;BME280;13848;49.018;12.078;2023-04-25T05:12:59;96910.41;;;8.33;68.29
26083;BME280;13848;49.018;12.078;2023-04-25T05:15:25;96909.75;;;8.37;68.13
26083;BME280;13848;49.018;12.078;2023-04-25T05:17:51;96916.69;;;8.45;67.95
26083;BME280;13848;49.018;12.078;2023-04-25T05:20:18;96920.09;;;8.34;68.32
26083;BME280;13848;49.018;12.078;2023-04-25T05:22:44;96908.94;;;8.37;68.21
26083;BME280;13848;49.018;12.078;2023-04-25T05:25:10;96920.22;;;8.57;68.06
26083;BME280;13848;49.018;12.078;2023-04-25T05:27:36;96915.38;;;8.66;67.81
26083;BME280;13848;49.018;12.078;2023-04-25T05:30:03;96910.84;;;8.78;67.36
26083;BME280;13848;49.018;12.078;2023-04-25T05:32:30;96913.09;;;8.93;67.15
26083;BME280;13848;49.018;12.078;2023-04-25T05:34:55;96911.38;;;9.10;66.82
26083;BME280;13848;49.018;12.078;2023-04-25T05:37:23;96912.13;;;9.17;66.35
26083;BME280;13848;49.018;12.078;2023-04-25T05:39:49;96910.81;;;9.08;66.44
26083;BME280;13848;49.018;12.078;2023-04-25T05:42:15;96913.06;;;9.23;66.33
26083;BME280;13848;49.018;12.078;2023-04-25T05:44:40;96910.16;;;9.48;65.68
26083;BME280;13848;49.018;12.078;2023-04-25T05:47:06;96909.91;;;9.61;65.08
26083;BME280;13848;49.018;12.078;2023-04-25T05:49:33;96903.44;;;9.85;65.24
26083;BME280;13848;49.018;12.078;2023-04-25T05:51:59;96904.16;;;9.93;64.34
26083;BME280;13848;49.018;12.078;2023-04-25T05:54:26;96907.50;;;10.11;64.71
26083;BME280;13848;49.018;12.078;2023-04-25T05:56:52;96901.16;;;10.18;63.72
26083;BME280;13848;49.018;12.078;2023-04-25T05:59:18;96904.66;;;10.30;63.73
26083;BME280;13848;49.018;12.078;2023-04-25T06:01:44;96905.03;;;10.22;62.04
26083;BME280;13848;49.018;12.078;2023-04-25T06:04:10;96909.72;;;10.03;62.33
26083;BME280;13848;49.018;12.078;2023-04-25T06:06:36;96904.72;;;9.95;62.91
26083;BME280;13848;49.018;12.078;2023-04-25T06:09:02;96904.63;;;9.78;63.08
26083;BME280;13848;49.018;12.078;2023-04-25T06:11:29;96906.03;;;9.92;63.02
26083;BME280;13848;49.018;12.078;2023-04-25T06:13:55;96903.69;;;9.72;63.37
26083;BME280;13848;49.018;12.078;2023-04-25T06:16:21;96906.63;;;9.82;62.99
26083;BME280;13848;49.018;12.078;2023-04-25T06:18:47;96902.06;;;9.83;63.13
26083;BME280;13848;49.018;12.078;2023-04-25T06:21:13;96899.38;;;9.48;63.38
26083;BME280;13848;49.018;12.078;2023-04-25T06:23:39;96899.13;;;9.49;62.78
26083;BME280;13848;49.018;12.078;2023-04-25T06:26:05;96897.38;;;9.43;63.71
26083;BME280;13848;49.018;12.078;2023-04-25T06:28:32;96896.19;;;9.98;63.51
26083;BME280;13848;49.018;12.078;2023-04-25T06:30:58;96896.66;;;9.83;62.67
26083;BME280;13848;49.018;12.078;2023-04-25T06:33:24;96897.78;;;10.10;63.11
26083;BME280;13848;49.018;12.078;2023-04-25T06:35:50;96893.19;;;10.34;62.37
26083;BME280;13848;49.018;12.078;2023-04-25T06:38:16;96889.75;;;9.99;61.46
26083;BME280;13848;49.018;12.078;2023-04-25T06:40:42;96883.91;;;9.67;62.13
26083;BME280;13848;49.018;12.078;2023-04-25T06:43:08;96892.41;;;10.10;62.51
26083;BME280;13848;49.018;12.078;2023-04-25T06:45:35;96886.06;;;10.57;62.15
26083;BME280;13848;49.018;12.078;2023-04-25T06:48:01;96886.31;;;10.72;61.11
26083;BME280;13848;49.018;12.078;2023-04-25T06:50:27;96884.06;;;10.81;60.48
26083;BME280;13848;49.018;12.078;2023-04-25T06:52:53;96893.34;;;11.02;61.24
26083;BME280;13848;49.018;12.078;2023-04-25T06:55:19;96884.19;;;11.19;60.90
26083;BME280;13848;49.018;12.078;2023-04-25T06:57:45;96893.44;;;10.78;59.78
26083;BME280;13848;49.018;12.078;2023-04-25T07:00:12;96896.50;;;10.53;59.97
26083;BME280;13848;49.018;12.078;2023-04-25T07:02:39;96897.38;;;10.71;60.72
26083;BME280;13848;49.018;12.078;2023-04-25T07:05:06;96903.09;;;10.74;60.42
26083;BME280;13848;49.018;12.078;2023-04-25T07:07:31;96893.31;;;10.85;60.33
26083;BME280;13848;49.018;12.078;2023-04-25T07:09:57;96891.66;;;10.84;61.28
26083;BME280;13848;49.018;12.078;2023-04-25T07:12:23;96895.13;;;11.46;59.01
26083;BME280;13848;49.018;12.078;2023-04-25T07:14:49;96901.50;;;11.07;59.76
26083;BME280;13848;49.018;12.078;2023-04-25T07:17:15;96902.09;;;11.09;59.41
26083;BME280;13848;49.018;12.078;2023-04-25T07:19:43;96903.06;;;11.03;58.51
26083;BME280;13848;49.018;12.078;2023-04-25T07:22:09;96902.38;;;10.79;58.50
26083;BME280;13848;49.018;12.078;2023-04-25T07:24:34;96901.09;;;10.98;58.75
26083;BME280;13848;49.018;12.078;2023-04-25T07:27:01;96907.94;;;10.89;57.19
26083;BME280;13848;49.018;12.078;2023-04-25T07:29:27;96900.09;;;10.87;58.27
26083;BME280;13848;49.018;12.078;2023-04-25T07:31:53;96906.09;;;11.23;58.61
26083;BME280;13848;49.018;12.078;2023-04-25T07:34:19;96898.16;;;11.33;57.02
26083;BME280;13848;49.018;12.078;2023-04-25T07:36:47;96890.72;;;11.40;57.27
26083;BME280;13848;49.018;12.078;2023-04-25T07:39:13;96894.22;;;12.35;64.40
26083;BME280;13848;49.018;12.078;2023-04-25T07:41:38;96898.66;;;12.03;56.87
26083;BME280;13848;49.018;12.078;2023-04-25T07:44:04;96902.91;;;11.60;56.59
26083;BME280;13848;49.018;12.078;2023-04-25T07:46:30;96898.47;;;11.54;55.86
26083;BME280;13848;49.018;12.078;2023-04-25T07:48:56;96906.69;;;11.25;56.32
26083;BME280;13848;49.018;12.078;2023-04-25T07:51:22;96899.56;;;11.19;56.23
26083;BME280;13848;49.018;12.078;2023-04-25T07:53:49;96895.44;;;11.00;57.35
26083;BME280;13848;49.018;12.078;2023-04-25T07:56:15;96890.06;;;11.33;57.82
26083;BME280;13848;49.018;12.078;2023-04-25T07:58:41;96893.66;;;11.05;56.70
26083;BME280;13848;49.018;12.078;2023-04-25T08:01:07;96891.41;;;11.31;56.56
26083;BME280;13848;49.018;12.078;2023-04-25T08:03:33;96894.66;;;11.50;56.31
26083;BME280;13848;49.018;12.078;2023-04-25T08:05:59;96898.91;;;11.29;54.84
26083;BME280;13848;49.018;12.078;2023-04-25T08:08:25;96892.50;;;11.52;55.27
26083;BME280;13848;49.018;12.078;2023-04-25T08:10:52;96878.78;;;11.92;54.08
26083;BME280;13848;49.018;12.078;2023-04-25T08:13:18;96893.34;;;12.57;55.59
26083;BME280;13848;49.018;12.078;2023-04-25T08:15:44;96895.91;;;12.68;53.40
26083;BME280;13848;49.018;12.078;2023-04-25T08:18:10;96884.56;;;12.44;52.95
26083;BME280;13848;49.018;12.078;2023-04-25T08:20:36;96897.28;;;12.22;51.74
26083;BME280;13848;49.018;12.078;2023-04-25T08:23:02;96893.44;;;11.96;52.94
26083;BME280;13848;49.018;12.078;2023-04-25T08:25:28;96886.72;;;11.98;53.55
26083;BME280;13848;49.018;12.078;2023-04-25T08:27:55;96891.94;;;12.27;52.63
26083;BME280;13848;49.018;12.078;2023-04-25T08:30:21;96895.72;;;12.26;51.29
26083;BME280;13848;49.018;12.078;2023-04-25T08:32:47;96897.47;;;12.15;51.68
26083;BME280;13848;49.018;12.078;2023-04-25T08:35:13;96899.88;;;12.12;51.15
26083;BME280;13848;49.018;12.078;2023-04-25T08:37:39;96899.09;;;12.38;52.37
26083;BME280;13848;49.018;12.078;2023-04-25T08:40:06;96893.06;;;12.80;51.74
26083;BME280;13848;49.018;12.078;2023-04-25T08:42:37;96899.50;;;12.74;50.84
26083;BME280;13848;49.018;12.078;2023-04-25T08:45:06;96905.19;;;12.50;50.91
26083;BME280;13848;49.018;12.078;2023-04-25T08:47:33;96909.38;;;12.36;50.64
26083;BME280;13848;49.018;12.078;2023-04-25T08:50:00;96904.31;;;12.23;50.80
26083;BME280;13848;49.018;12.078;2023-04-25T08:52:28;96904.44;;;12.33;50.79
26083;BME280;13848;49.018;12.078;2023-04-25T08:54:57;96915.03;;;12.84;51.08
26083;BME280;13848;49.018;12.078;2023-04-25T08:57:23;96912.75;;;12.48;50.39
26083;BME280;13848;49.018;12.078;2023-04-25T08:59:49;96924.31;;;12.66;50.20
26083;BME280;13848;49.018;12.078;2023-04-25T09:02:19;96931.13;;;12.73;50.99
26083;BME280;13848;49.018;12.078;2023-04-25T09:04:44;96931.47;;;12.55;51.14
26083;BME280;13848;49.018;12.078;2023-04-25T09:07:11;96925.44;;;12.70;50.65
26083;BME280;13848;49.018;12.078;2023-04-25T09:09:37;96928.44;;;12.51;50.60
26083;BME280;13848;49.018;12.078;2023-04-25T09:12:03;96932.09;;;12.40;50.78
26083;BME280;13848;49.018;12.078;2023-04-25T09:14:30;96941.91;;;12.46;51.79
26083;BME280;13848;49.018;12.078;2023-04-25T09:17:01;96943.22;;;12.66;52.39
26083;BME280;13848;49.018;12.078;2023-04-25T09:19:30;96934.25;;;12.38;52.84
26083;BME280;13848;49.018;12.078;2023-04-25T09:21:57;96948.91;;;12.42;54.38
26083;BME280;13848;49.018;12.078;2023-04-25T09:24:34;96950.00;;;12.46;54.40
26083;BME280;13848;49.018;12.078;2023-04-25T09:27:03;96959.97;;;13.12;54.17
26083;BME280;13848;49.018;12.078;2023-04-25T09:29:30;96951.19;;;12.99;52.95
26083;BME280;13848;49.018;12.078;2023-04-25T09:32:15;96949.72;;;12.92;53.51
26083;BME280;13848;49.018;12.078;2023-04-25T09:34:45;96959.25;;;12.94;53.23
26083;BME280;13848;49.018;12.078;2023-04-25T09:37:11;96965.66;;;13.15;54.23
26083;BME280;13848;49.018;12.078;2023-04-25T09:39:37;96958.91;;;13.77;53.37
26083;BME280;13848;49.018;12.078;2023-04-25T09:42:04;96951.88;;;14.18;52.53
26083;BME280;13848;49.018;12.078;2023-04-25T09:44:30;96963.19;;;14.52;51.28
26083;BME280;13848;49.018;12.078;2023-04-25T09:46:56;96963.94;;;13.58;50.57
26083;BME280;13848;49.018;12.078;2023-04-25T09:49:22;96972.84;;;14.90;54.40
26083;BME280;13848;49.018;12.078;2023-04-25T09:51:55;96972.00;;;14.85;52.03
26083;BME280;13848;49.018;12.078;2023-04-25T09:54:21;96971.41;;;14.68;51.22
26083;BME280;13848;49.018;12.078;2023-04-25T09:56:48;96977.03;;;14.51;50.44
26083;BME280;13848;49.018;12.078;2023-04-25T09:59:18;96978.78;;;14.30;50.43
26083;BME280;13848;49.018;12.078;2023-04-25T10:01:45;96974.69;;;14.27;50.37
26083;BME280;13848;49.018;12.078;2023-04-25T10:04:12;96965.38;;;14.13;50.54
26083;BME280;13848;49.018;12.078;2023-04-25T10:06:39;96983.03;;;13.78;50.58
26083;BME280;13848;49.018;12.078;2023-04-25T10:09:08;96980.41;;;13.51;50.42
26083;BME280;13848;49.018;12.078;2023-04-25T10:11:34;96977.28;;;13.38;50.72
26083;BME280;13848;49.018;12.078;2023-04-25T10:14:00;96987.59;;;13.41;50.55
26083;BME280;13848;49.018;12.078;2023-04-25T10:16:27;96978.38;;;13.15;50.59
26083;BME280;13848;49.018;12.078;2023-04-25T10:18:54;96980.72;;;13.28;51.39
26083;BME280;13848;49.018;12.078;2023-04-25T10:21:22;96981.09;;;13.74;50.97
26083;BME280;13848;49.018;12.078;2023-04-25T10:23:48;96976.91;;;13.93;51.02
26083;BME280;13848;49.018;12.078;2023-04-25T10:26:16;96988.53;;;13.89;49.62
26083;BME280;13848;49.018;12.078;2023-04-25T10:28:58;96988.06;;;14.39;51.87
26083;BME280;13848;49.018;12.078;2023-04-25T10:31:24;96997.19;;;13.53;50.69
26083;BME280;13848;49.018;12.078;2023-04-25T10:33:50;96996.81;;;13.18;51.80
26083;BME280;13848;49.018;12.078;2023-04-25T10:36:18;97000.06;;;12.93;52.60
26083;BME280;13848;49.018;12.078;2023-04-25T10:38:45;97002.56;;;12.34;53.84
26083;BME280;13848;49.018;12.078;2023-04-25T10:41:12;96999.13;;;12.38;54.30
26083;BME280;13848;49.018;12.078;2023-04-25T10:43:40;97004.72;;;12.32;54.28
26083;BME280;13848;49.018;12.078;2023-04-25T10:46:18;96996.63;;;12.54;54.35
26083;BME280;13848;49.018;12.078;2023-04-25T10:48:49;96995.75;;;13.19;54.99
26083;BME280;13848;49.018;12.078;2023-04-25T10:51:20;96992.06;;;13.89;54.27
26083;BME280;13848;49.018;12.078;2023-04-25T10:53:47;96984.88;;;14.52;52.73
26083;BME280;13848;49.018;12.078;2023-04-25T10:56:23;96981.53;;;14.98;51.76
26083;BME280;13848;49.018;12.078;2023-04-25T10:58:52;96979.38;;;14.42;50.53
26083;BME280;13848;49.018;12.078;2023-04-25T11:01:35;96989.97;;;14.01;50.76
26083;BME280;13848;49.018;12.078;2023-04-25T11:04:02;96986.03;;;14.19;52.47
26083;BME280;13848;49.018;12.078;2023-04-25T11:06:34;96991.34;;;14.46;49.57
26083;BME280;13848;49.018;12.078;2023-04-25T11:09:10;96994.22;;;13.87;49.12
26083;BME280;13848;49.018;12.078;2023-04-25T11:11:37;96990.69;;;13.54;49.56
26083;BME280;13848;49.018;12.078;2023-04-25T11:14:04;96980.56;;;13.40;49.69
26083;BME280;13848;49.018;12.078;2023-04-25T11:16:30;96993.84;;;13.41;49.13
26083;BME280;13848;49.018;12.078;2023-04-25T11:18:57;97003.53;;;13.37;48.99
26083;BME280;13848;49.018;12.078;2023-04-25T11:21:23;97003.00;;;13.13;48.77
26083;BME280;13848;49.018;12.078;2023-04-25T11:23:51;97002.41;;;13.33;48.45
26083;BME280;13848;49.018;12.078;2023-04-25T11:26:19;97003.81;;;13.36;48.19
26083;BME280;13848;49.018;12.078;2023-04-25T11:28:45;96998.06;;;13.32;48.10
26083;BME280;13848;49.018;12.078;2023-04-25T11:31:12;96998.06;;;13.32;48.58
26083;BME280;13848;49.018;12.078;2023-04-25T11:33:38;96992.22;;;14.09;49.17
26083;BME280;13848;49.018;12.078;2023-04-25T11:36:04;96988.03;;;14.34;47.14
26083;BME280;13848;49.018;12.078;2023-04-25T11:38:30;96982.19;;;14.57;46.35
26083;BME280;13848;49.018;12.078;2023-04-25T11:40:56;96979.22;;;14.59;45.16
26083;BME280;13848;49.018;12.078;2023-04-25T11:43:22;96982.19;;;14.57;45.84
26083;BME280;13848;49.018;12.078;2023-04-25T11:45:49;96987.38;;;14.17;45.49
26083;BME280;13848;49.018;12.078;2023-04-25T11:48:16;96989.03;;;14.23;45.59
26083;BME280;13848;49.018;12.078;2023-04-25T11:50:42;96986.44;;;15.11;46.33
26083;BME280;13848;49.018;12.078;2023-04-25T11:53:08;96987.34;;;15.37;44.69
26083;BME280;13848;49.018;12.078;2023-04-25T11:55:34;96982.81;;;14.75;44.20
26083;BME280;13848;49.018;12.078;2023-04-25T11:58:00;96992.66;;;14.91;44.71
26083;BME280;13848;49.018;12.078;2023-04-25T12:00:27;96989.34;;;14.84;42.62
26083;BME280;13848;49.018;12.078;2023-04-25T12:02:55;96984.47;;;14.81;43.06
26083;BME280;13848;49.018;12.078;2023-04-25T12:05:26;96977.03;;;15.54;45.49
26083;BME280;13848;49.018;12.078;2023-04-25T12:07:52;96979.75;;;16.05;44.66
26083;BME280;13848;49.018;12.078;2023-04-25T12:10:19;96973.19;;;16.27;41.49
26083;BME280;13848;49.018;12.078;2023-04-25T12:12:46;96977.59;;;16.07;42.43
26083;BME280;13848;49.018;12.078;2023-04-25T12:15:13;96983.56;;;16.09;42.11
26083;BME280;13848;49.018;12.078;2023-04-25T12:17:40;96974.75;;;16.53;42.05
26083;BME280;13848;49.018;12.078;2023-04-25T12:20:08;96979.97;;;16.29;40.91
26083;BME280;13848;49.018;12.078;2023-04-25T12:22:35;96979.72;;;15.34;40.73
26083;BME280;13848;49.018;12.078;2023-04-25T12:25:01;96983.44;;;15.07;40.72
26083;BME280;13848;49.018;12.078;2023-04-25T12:27:27;96978.91;;;14.50;40.84
26083;BME280;13848;49.018;12.078;2023-04-25T12:29:54;96990.63;;;14.66;42.36
26083;BME280;13848;49.018;12.078;2023-04-25T12:32:21;96994.03;;;14.41;42.50
26083;BME280;13848;49.018;12.078;2023-04-25T12:34:47;96987.63;;;14.57;42.63
26083;BME280;13848;49.018;12.078;2023-04-25T12:37:13;96991.34;;;14.46;42.53
26083;BME280;13848;49.018;12.078;2023-04-25T12:39:40;96998.19;;;14.54;42.35
26083;BME280;13848;49.018;12.078;2023-04-25T12:42:06;96996.53;;;14.48;41.91
26083;BME280;13848;49.018;12.078;2023-04-25T12:44:33;96998.06;;;14.33;42.53
26083;BME280;13848;49.018;12.078;2023-04-25T12:46:59;97004.78;;;14.26;42.55
26083;BME280;13848;49.018;12.078;2023-04-25T12:49:25;97005.50;;;14.53;42.60
26083;BME280;13848;49.018;12.078;2023-04-25T12:51:51;96999.38;;;14.83;42.56
26083;BME280;13848;49.018;12.078;2023-04-25T12:54:17;96996.41;;;14.80;42.04